Time;durP1;ratioP1;P1;durP2;ratioP2;P2;SDS_P1;SDS_P2;PMS_P1;PMS_P2;Temp;Humidity;BMP_temperature;BMP_pressure;BME280_temperature;BME280_humidity;BME280_pressure;Samples;Min_cycle;Max_cycle;Signal;HPM_P1;HPM_P2
2021/03/29 00:02:11;;;;;;;5.03;3.42;;;;;;;8.40;52.37;99289.94;4986774;28;20216;-80
2021/03/29 00:04:37;;;;;;;6.20;4.13;;;;;;;8.43;51.97;99289.94;4981469;28;20204;-82
2021/03/29 00:07:04;;;;;;;8.88;4.22;;;;;;;8.41;52.30;99284.72;4985733;28;20315;-81
2021/03/29 00:09:32;;;;;;;5.35;3.53;;;;;;;8.42;52.68;99290.84;4985311;28;20220;-80
2021/03/29 00:11:59;;;;;;;6.72;4.18;;;;;;;8.40;52.80;99296.03;4983449;28;20224;-81
2021/03/29 00:14:26;;;;;;;7.78;4.05;;;;;;;8.45;52.02;99293.38;4984381;28;20211;-81
2021/03/29 00:16:53;;;;;;;7.47;3.90;;;;;;;8.45;52.69;99290.78;4981630;28;20229;-81
2021/03/29 00:19:20;;;;;;;6.15;3.65;;;;;;;8.42;52.78;99291.69;4981174;28;20219;-80
2021/03/29 00:21:46;;;;;;;9.18;4.13;;;;;;;8.47;52.49;99291.63;4980007;28;20213;-80
2021/03/29 00:24:13;;;;;;;6.30;4.25;;;;;;;8.26;52.24;99288.38;4983239;28;20256;-79
2021/03/29 00:26:39;;;;;;;6.28;4.03;;;;;;;8.13;52.92;99297.19;4985802;28;20251;-80
2021/03/29 00:29:05;;;;;;;6.75;3.55;;;;;;;8.14;53.29;99298.88;4980088;28;20213;-81
2021/03/29 00:31:32;;;;;;;7.00;3.95;;;;;;;8.13;53.30;99302.38;4982511;28;20959;-80
2021/03/29 00:33:58;;;;;;;7.85;4.40;;;;;;;8.09;53.48;99300.69;4981160;28;20265;-81
2021/03/29 00:36:26;;;;;;;6.40;3.83;;;;;;;8.07;53.49;99303.31;4978841;28;20236;-82
2021/03/29 00:38:52;;;;;;;7.32;4.28;;;;;;;8.04;53.37;99303.31;4982672;28;20255;-81
2021/03/29 00:41:19;;;;;;;6.03;4.07;;;;;;;8.01;53.60;99303.34;4982180;28;20211;-81
2021/03/29 00:43:46;;;;;;;7.30;4.70;;;;;;;8.03;53.22;99299.03;4985864;28;20268;-80
2021/03/29 00:46:14;;;;;;;8.20;4.30;;;;;;;7.98;53.56;99302.53;4987112;28;20243;-80
2021/03/29 00:48:41;;;;;;;10.57;5.03;;;;;;;8.00;53.22;99308.59;4981450;28;20275;-80
2021/03/29 00:51:12;;;;;;;10.00;4.90;;;;;;;7.94;52.99;99312.09;4979688;28;20208;-81
2021/03/29 00:53:42;;;;;;;8.13;4.70;;;;;;;7.90;53.88;99311.28;4982376;28;20217;-80
2021/03/29 00:56:08;;;;;;;7.57;4.03;;;;;;;7.94;54.01;99311.22;4980499;28;20247;-81
2021/03/29 00:58:35;;;;;;;7.68;3.90;;;;;;;7.96;53.63;99310.34;4981213;28;20606;-81
2021/03/29 01:01:05;;;;;;;8.27;4.10;;;;;;;7.95;53.95;99313.81;4982670;28;20227;-80
2021/03/29 01:03:34;;;;;;;7.63;4.00;;;;;;;7.93;54.02;99306.91;4982048;28;20204;-80
2021/03/29 01:06:03;;;;;;;6.40;3.78;;;;;;;7.87;53.42;99310.44;4985248;28;20227;-81
2021/03/29 01:08:30;;;;;;;6.18;4.30;;;;;;;7.81;54.20;99308.75;4984231;28;20566;-80
2021/03/29 01:10:58;;;;;;;5.72;4.13;;;;;;;7.85;54.34;99313.03;4984602;28;20267;-81
2021/03/29 01:13:24;;;;;;;7.65;3.80;;;;;;;7.88;54.14;99312.13;4981499;28;20223;-81
2021/03/29 01:15:52;;;;;;;5.75;3.95;;;;;;;7.88;54.21;99313.03;4981359;28;20239;-80
2021/03/29 01:18:19;;;;;;;8.70;3.97;;;;;;;7.87;53.56;99310.44;4984663;28;20276;-80
2021/03/29 01:20:57;;;;;;;8.93;4.45;;;;;;;7.90;54.27;99311.28;4983943;28;20215;-81
2021/03/29 01:23:24;;;;;;;7.13;4.13;;;;;;;7.89;54.18;99308.69;4983361;28;20211;-80
2021/03/29 01:25:55;;;;;;;7.43;4.40;;;;;;;7.75;54.14;99306.19;4982096;28;20231;-81
2021/03/29 01:28:23;;;;;;;6.63;3.88;;;;;;;7.79;54.53;99310.47;4982214;28;20227;-80
2021/03/29 01:30:50;;;;;;;8.02;4.72;;;;;;;7.78;53.75;99315.72;4977167;28;20211;-80
2021/03/29 01:33:17;;;;;;;7.13;3.83;;;;;;;7.76;54.32;99312.28;4982946;28;20228;-80
2021/03/29 01:35:45;;;;;;;6.97;3.78;;;;;;;7.73;54.27;99314.00;4982249;28;20243;-80
2021/03/29 01:38:13;;;;;;;7.28;3.85;;;;;;;7.69;54.25;99316.63;4986344;28;21006;-79
2021/03/29 01:40:40;;;;;;;4.82;3.30;;;;;;;7.60;54.33;99321.91;4980162;28;20212;-80
2021/03/29 01:43:07;;;;;;;7.38;3.60;;;;;;;7.56;54.57;99318.47;4983991;28;20215;-80
2021/03/29 01:45:35;;;;;;;6.07;4.00;;;;;;;7.47;54.69;99315.94;4978415;28;20291;-81
2021/03/29 01:48:02;;;;;;;5.32;3.83;;;;;;;7.43;55.33;99315.09;4981887;28;20222;-81
2021/03/29 01:50:29;;;;;;;7.30;4.25;;;;;;;7.39;54.95;99322.91;4983811;28;20232;-80
2021/03/29 01:52:56;;;;;;;8.40;4.32;;;;;;;7.33;55.08;99322.09;4978769;28;20601;-81
2021/03/29 01:55:23;;;;;;;7.45;4.38;;;;;;;7.28;55.40;99323.00;4981677;28;20239;-80
2021/03/29 01:57:49;;;;;;;7.05;4.00;;;;;;;7.21;55.02;99323.91;4983107;28;20228;-82
2021/03/29 02:00:20;;;;;;;7.88;4.38;;;;;;;7.19;55.77;99328.25;4985579;28;20212;-80
2021/03/29 02:02:47;;;;;;;7.07;3.85;;;;;;;7.26;55.95;99327.31;4980895;28;20208;-80
2021/03/29 02:05:14;;;;;;;6.30;3.30;;;;;;;7.35;55.40;99322.06;4983673;28;20231;-80
2021/03/29 02:07:42;;;;;;;4.68;3.05;;;;;;;7.40;56.17;99325.50;4984859;28;20222;-81
2021/03/29 02:10:10;;;;;;;6.57;3.10;;;;;;;7.45;55.93;99317.69;4983980;28;20220;-81
2021/03/29 02:12:37;;;;;;;7.47;3.85;;;;;;;7.47;55.81;99322.00;4981519;28;20235;-80
2021/03/29 02:15:04;;;;;;;4.72;2.95;;;;;;;7.52;55.30;99324.56;4984251;28;20235;-80
2021/03/29 02:17:30;;;;;;;7.90;3.65;;;;;;;7.46;55.68;99320.28;4987119;28;20661;-81
2021/03/29 02:19:58;;;;;;;6.78;3.08;;;;;;;7.45;55.61;99328.09;4978658;28;20220;-82
2021/03/29 02:22:24;;;;;;;4.90;2.88;;;;;;;7.46;55.45;99330.66;4979964;28;20215;-81
2021/03/29 02:24:50;;;;;;;6.05;3.10;;;;;;;7.49;55.97;99328.03;4984014;28;20630;-81
2021/03/29 02:27:16;;;;;;;5.70;3.05;;;;;;;7.47;55.80;99318.53;4984060;28;20225;-80
2021/03/29 02:29:43;;;;;;;8.80;3.42;;;;;;;7.51;55.41;99331.47;4984345;28;20221;-80
2021/03/29 02:32:09;;;;;;;5.70;3.05;;;;;;;7.53;55.23;99326.28;4980065;28;20213;-81
2021/03/29 02:34:35;;;;;;;3.50;2.40;;;;;;;7.57;56.15;99327.13;4980161;28;20306;-80
2021/03/29 02:37:03;;;;;;;4.97;3.05;;;;;;;7.61;56.20;99328.81;4987622;28;20240;-81
2021/03/29 02:39:29;;;;;;;6.47;2.78;;;;;;;7.66;55.92;99327.03;4984381;28;20217;-81
2021/03/29 02:41:55;;;;;;;5.18;3.20;;;;;;;7.69;55.63;99327.03;4982955;28;20285;-81
2021/03/29 02:44:21;;;;;;;4.82;2.97;;;;;;;7.69;55.87;99329.63;4980706;28;20291;-81
2021/03/29 02:46:48;;;;;;;8.32;3.63;;;;;;;7.69;55.45;99327.88;4981150;28;20235;-80
2021/03/29 02:49:15;;;;;;;5.25;3.03;;;;;;;7.66;55.79;99327.91;4978381;28;20224;-80
2021/03/29 02:51:43;;;;;;;5.15;3.30;;;;;;;7.61;55.73;99319.31;4979773;28;20797;-80
2021/03/29 02:54:10;;;;;;;5.68;3.22;;;;;;;7.53;55.70;99326.28;4983623;28;20223;-81
2021/03/29 02:56:39;;;;;;;5.18;3.20;;;;;;;7.46;56.03;99325.47;4983025;28;20245;-81
2021/03/29 02:59:07;;;;;;;6.55;3.10;;;;;;;7.45;55.83;99326.34;4979882;28;20207;-80
2021/03/29 03:01:35;;;;;;;5.05;3.28;;;;;;;7.45;56.23;99326.34;4979800;28;20712;-81
2021/03/29 03:04:01;;;;;;;5.57;3.08;;;;;;;7.40;56.14;99329.84;4977318;28;20220;-80
2021/03/29 03:06:29;;;;;;;5.60;3.55;;;;;;;7.31;56.34;99331.59;4983712;28;20240;-80
2021/03/29 03:08:55;;;;;;;6.82;3.08;;;;;;;7.32;56.82;99333.34;4988566;28;20871;-80
2021/03/29 03:11:23;;;;;;;6.22;3.85;;;;;;;7.37;56.65;99335.03;4982512;28;20234;-80
2021/03/29 03:13:49;;;;;;;3.70;2.90;;;;;;;7.46;57.18;99335.88;4980762;28;20574;-80
2021/03/29 03:16:16;;;;;;;8.95;3.63;;;;;;;7.42;57.00;99338.47;4985544;28;20232;-80
2021/03/29 03:18:42;;;;;;;7.22;3.33;;;;;;;7.39;57.15;99338.50;4981182;28;20242;-80
2021/03/29 03:21:09;;;;;;;5.47;3.08;;;;;;;7.42;57.31;99328.09;4981099;28;20212;-80
2021/03/29 03:23:35;;;;;;;7.80;3.75;;;;;;;7.43;56.86;99335.88;4984709;28;20298;-81
2021/03/29 03:26:01;;;;;;;6.80;3.80;;;;;;;7.46;56.82;99335.88;4984000;28;20265;-80
2021/03/29 03:28:29;;;;;;;7.00;3.50;;;;;;;7.44;56.84;99342.78;4982278;28;20661;-80
2021/03/29 03:30:57;;;;;;;5.35;3.15;;;;;;;7.45;57.34;99334.13;4981297;28;20212;-80
2021/03/29 03:33:24;;;;;;;5.45;3.22;;;;;;;7.56;56.94;99341.00;4984058;28;20216;-80
2021/03/29 03:35:51;;;;;;;7.30;3.35;;;;;;;7.62;57.20;99343.53;4984443;28;20241;-79
2021/03/29 03:38:21;;;;;;;6.95;3.40;;;;;;;7.60;56.96;99338.34;4984464;28;20924;-80
2021/03/29 03:40:50;;;;;;;5.00;3.08;;;;;;;7.67;56.85;99346.97;4981574;28;20247;-80
2021/03/29 03:43:19;;;;;;;7.38;3.28;;;;;;;7.68;56.40;99351.25;4981936;28;20239;-80
2021/03/29 03:45:48;;;;;;;8.90;3.22;;;;;;;7.67;57.00;99347.81;4982885;28;20241;-81
2021/03/29 03:48:14;;;;;;;6.90;3.30;;;;;;;7.70;56.74;99350.41;4986821;28;20211;-80
2021/03/29 03:50:41;;;;;;;6.10;3.35;;;;;;;7.70;56.31;99344.31;4982446;28;20212;-80
2021/03/29 03:53:07;;;;;;;6.10;3.58;;;;;;;7.71;56.33;99351.25;4981698;28;20215;-81
2021/03/29 03:55:35;;;;;;;6.10;3.30;;;;;;;7.72;56.77;99347.78;4983194;28;20228;-81
2021/03/29 03:58:02;;;;;;;5.97;3.15;;;;;;;7.73;56.27;99347.75;4985665;28;20235;-80
2021/03/29 04:00:28;;;;;;;5.85;3.20;;;;;;;7.73;56.86;99349.50;4987898;28;20223;-80
2021/03/29 04:02:55;;;;;;;7.72;3.80;;;;;;;7.74;56.61;99356.44;4982829;28;20223;-81
2021/03/29 04:05:21;;;;;;;7.03;3.22;;;;;;;7.76;56.91;99351.22;4985893;28;20414;-80
2021/03/29 04:07:49;;;;;;;4.78;3.67;;;;;;;7.73;56.20;99357.28;4982324;28;20208;-80
2021/03/29 04:10:18;;;;;;;4.57;3.55;;;;;;;7.71;56.60;99362.50;4983092;28;20208;-80
2021/03/29 04:12:47;;;;;;;7.30;3.47;;;;;;;7.70;56.61;99355.59;4983549;28;20275;-81
2021/03/29 04:15:14;;;;;;;5.78;3.50;;;;;;;7.70;56.18;99365.09;4981473;28;20291;-81
2021/03/29 04:17:40;;;;;;;6.07;3.13;;;;;;;7.68;56.33;99361.66;4984313;28;20882;-80
2021/03/29 04:20:08;;;;;;;4.40;3.13;;;;;;;7.68;56.15;99361.66;4980514;28;20220;-81
2021/03/29 04:22:35;;;;;;;10.73;4.45;;;;;;;7.70;56.21;99357.31;4984707;28;20212;-81
2021/03/29 04:25:01;;;;;;;8.57;4.25;;;;;;;7.70;56.87;99352.09;4983388;28;20236;-81
2021/03/29 04:27:27;;;;;;;7.60;4.05;;;;;;;7.68;56.63;99364.25;4983888;28;20269;-81
2021/03/29 04:29:53;;;;;;;6.15;4.03;;;;;;;7.67;56.14;99359.94;4983642;28;21161;-80
2021/03/29 04:32:19;;;;;;;6.85;3.88;;;;;;;7.67;56.39;99365.16;4983206;28;20216;-80
2021/03/29 04:34:45;;;;;;;5.28;3.00;;;;;;;7.63;56.62;99368.63;4985488;28;20217;-81
2021/03/29 04:37:12;;;;;;;6.78;3.38;;;;;;;7.61;56.74;99372.97;4983579;28;20229;-81
2021/03/29 04:39:38;;;;;;;5.93;3.50;;;;;;;7.58;56.33;99371.25;4980845;28;20212;-79
2021/03/29 04:42:05;;;;;;;7.68;3.90;;;;;;;7.55;56.85;99368.66;4980722;28;20648;-80
2021/03/29 04:44:32;;;;;;;6.45;3.67;;;;;;;7.53;56.76;99368.72;4981691;28;20707;-80
2021/03/29 04:46:58;;;;;;;6.97;3.80;;;;;;;7.55;56.69;99373.88;4984178;28;20213;-80
2021/03/29 04:49:24;;;;;;;7.10;3.90;;;;;;;7.56;56.61;99379.94;4983244;28;20208;-80
2021/03/29 04:51:50;;;;;;;9.63;4.50;;;;;;;7.50;56.72;99379.09;4983520;28;20208;-80
2021/03/29 04:54:17;;;;;;;9.07;5.03;;;;;;;7.49;56.99;99373.91;4988650;28;20219;-80
2021/03/29 04:56:43;;;;;;;9.20;4.57;;;;;;;7.44;56.75;99373.94;4986227;28;20304;-80
2021/03/29 04:59:09;;;;;;;10.00;5.72;;;;;;;7.42;56.58;99373.09;4985528;28;20231;-80
2021/03/29 05:01:35;;;;;;;15.23;6.63;;;;;;;7.40;56.67;99377.41;4978312;28;20212;-81
2021/03/29 05:04:01;;;;;;;10.77;5.20;;;;;;;7.40;56.78;99377.41;4969761;28;20885;-80
2021/03/29 05:06:29;;;;;;;11.35;5.00;;;;;;;7.37;57.13;99377.47;4984680;28;20731;-81
2021/03/29 05:08:55;;;;;;;5.45;3.97;;;;;;;7.39;56.86;99374.84;4983273;28;20215;-80
2021/03/29 05:11:22;;;;;;;6.53;4.00;;;;;;;7.33;57.56;99386.13;4984817;28;20208;-80
2021/03/29 05:13:54;;;;;;;6.82;3.45;;;;;;;7.32;56.94;99384.41;4982792;28;20215;-81
2021/03/29 05:16:23;;;;;;;8.75;3.90;;;;;;;7.33;57.04;99386.13;4988863;28;20360;-80
2021/03/29 05:18:49;;;;;;;7.35;4.13;;;;;;;7.29;56.66;99390.47;4983100;28;20228;-81
2021/03/29 05:21:15;;;;;;;6.03;3.72;;;;;;;7.27;57.36;99381.81;4984042;28;20216;-80
2021/03/29 05:23:44;;;;;;;5.72;3.85;;;;;;;7.27;56.96;99386.16;4980704;28;20299;-80
2021/03/29 05:26:10;;;;;;;5.65;3.60;;;;;;;7.28;57.42;99387.91;4981721;28;20242;-81
2021/03/29 05:28:37;;;;;;;6.43;3.50;;;;;;;7.28;57.36;99393.94;4990961;28;20212;-80
2021/03/29 05:31:03;;;;;;;6.32;3.65;;;;;;;7.30;57.17;99391.34;4979718;28;20208;-81
2021/03/29 05:33:29;;;;;;;5.10;3.35;;;;;;;7.28;57.61;99393.09;4981944;28;20212;-80
2021/03/29 05:35:55;;;;;;;7.32;3.70;;;;;;;7.31;57.79;99398.25;4987328;28;20250;-81
2021/03/29 05:38:21;;;;;;;8.45;3.60;;;;;;;7.34;57.51;99393.91;4989642;28;20259;-81
2021/03/29 05:40:51;;;;;;;6.03;3.40;;;;;;;7.34;57.34;99390.44;4980608;28;20782;-82
2021/03/29 05:43:17;;;;;;;8.45;3.55;;;;;;;7.32;57.96;99394.78;4981593;28;20207;-81
2021/03/29 05:45:44;;;;;;;6.55;3.22;;;;;;;7.32;57.67;99395.66;4981886;28;20231;-80
2021/03/29 05:48:10;;;;;;;8.48;3.70;;;;;;;7.29;57.64;99394.78;4982713;28;20208;-80
2021/03/29 05:50:36;;;;;;;6.35;3.38;;;;;;;7.25;57.92;99403.47;4984821;28;20209;-79
2021/03/29 05:53:02;;;;;;;12.20;4.10;;;;;;;7.20;58.07;99400.03;4980997;28;20720;-80
2021/03/29 05:55:35;;;;;;;7.80;4.28;;;;;;;7.18;58.29;99414.75;4988426;28;20236;-80
2021/03/29 05:58:19;;;;;;;7.00;3.83;;;;;;;7.21;57.91;99410.41;4988884;28;20227;-80
2021/03/29 06:00:46;;;;;;;7.05;3.70;;;;;;;7.22;58.70;99401.75;4987383;28;20223;-81
2021/03/29 06:03:20;;;;;;;8.63;3.83;;;;;;;7.22;58.63;99393.09;4979865;28;21092;-80
2021/03/29 06:05:46;;;;;;;7.85;4.32;;;;;;;7.24;59.36;99401.75;4983923;28;20235;-80
2021/03/29 06:08:13;;;;;;;9.50;3.78;;;;;;;7.27;59.17;99401.72;4985099;28;20215;-80
2021/03/29 06:10:39;;;;;;;9.10;4.13;;;;;;;7.28;59.34;99403.47;4979885;28;20853;-81
2021/03/29 06:13:14;;;;;;;9.27;4.78;;;;;;;7.26;59.45;99411.25;4985889;28;20224;-80
2021/03/29 06:15:40;;;;;;;8.50;3.80;;;;;;;7.27;59.24;99406.94;4980360;28;20277;-80
2021/03/29 06:18:14;;;;;;;5.90;3.88;;;;;;;7.29;59.93;99405.19;4984529;28;20240;-81
2021/03/29 06:21:04;;;;;;;7.85;4.20;;;;;;;7.27;60.57;99414.72;4979996;28;20208;-80
2021/03/29 06:23:31;;;;;;;6.72;3.78;;;;;;;7.26;59.94;99416.44;4983051;28;20216;-81
2021/03/29 06:26:19;;;;;;;10.45;5.10;;;;;;;7.29;60.40;99418.16;4982430;28;20243;-80
2021/03/29 06:28:46;;;;;;;5.57;4.00;;;;;;;7.32;60.44;99421.59;4981890;28;20216;-80
2021/03/29 06:31:36;;;;;;;7.97;4.00;;;;;;;7.34;60.11;99416.41;4984261;28;20220;-81
2021/03/29 06:34:03;;;;;;;6.63;3.33;;;;;;;7.42;59.74;99427.59;4969482;28;20261;-80
2021/03/29 06:36:43;;;;;;;7.85;4.20;;;;;;;7.46;59.61;99429.34;4981807;28;20236;-81
2021/03/29 06:39:14;;;;;;;8.98;4.10;;;;;;;7.55;59.40;99422.34;4984825;28;20212;-80
2021/03/29 06:41:41;;;;;;;6.72;4.30;;;;;;;7.65;59.90;99416.22;4978397;28;20212;-81
2021/03/29 06:44:07;;;;;;;7.72;4.10;;;;;;;7.76;59.21;99418.75;4982478;28;20227;-80
2021/03/29 06:46:33;;;;;;;9.45;4.28;;;;;;;7.87;59.16;99424.75;4982786;28;20282;-81
2021/03/29 06:49:01;;;;;;;6.18;4.30;;;;;;;7.97;58.89;99425.53;4983702;28;20218;-81
2021/03/29 06:51:30;;;;;;;7.82;4.00;;;;;;;8.08;58.90;99429.75;4982957;28;20358;-80
2021/03/29 06:53:57;;;;;;;7.18;5.10;;;;;;;8.15;59.11;99429.72;4979871;28;20220;-80
2021/03/29 06:56:26;;;;;;;7.15;4.93;;;;;;;8.23;58.82;99428.75;4983441;28;20244;-81
2021/03/29 06:58:56;;;;;;;11.15;4.70;;;;;;;8.28;58.47;99423.53;4984569;28;20732;-81
2021/03/29 07:01:24;;;;;;;10.23;4.72;;;;;;;8.37;58.96;99431.25;4980072;28;20206;-82
2021/03/29 07:03:55;;;;;;;8.32;4.88;;;;;;;8.47;58.25;99439.84;4981616;28;20278;-82
2021/03/29 07:06:25;;;;;;;8.85;4.03;;;;;;;8.56;58.07;99426.75;4981169;28;20741;-81
2021/03/29 07:09:02;;;;;;;6.22;3.85;;;;;;;8.66;58.34;99423.19;4983876;28;20758;-80
2021/03/29 07:11:28;;;;;;;9.40;3.90;;;;;;;8.83;58.67;99432.56;4982154;28;20219;-81
2021/03/29 07:13:54;;;;;;;9.95;4.85;;;;;;;8.95;58.03;99429.84;4988110;28;20820;-80
2021/03/29 07:16:22;;;;;;;11.70;6.00;;;;;;;9.11;57.97;99440.91;4981889;28;20236;-81
2021/03/29 07:18:49;;;;;;;9.65;3.45;;;;;;;9.25;58.17;99432.94;4981212;28;20228;-82
2021/03/29 07:21:16;;;;;;;5.65;3.13;;;;;;;9.37;57.44;99432.75;4978824;28;20303;-79
2021/03/29 07:23:43;;;;;;;6.10;3.50;;;;;;;9.53;56.94;99438.63;4982201;28;20219;-79
2021/03/29 07:26:21;;;;;;;9.02;3.80;;;;;;;9.68;57.01;99445.38;4985762;28;20270;-82
2021/03/29 07:28:48;;;;;;;8.18;3.88;;;;;;;9.78;57.01;99444.38;4986277;28;20216;-83
2021/03/29 07:31:42;;;;;;;5.50;2.38;;;;;;;9.90;56.26;99447.66;4988649;28;20219;-81
2021/03/29 07:34:08;;;;;;;6.38;2.30;;;;;;;9.99;56.11;99452.75;4981250;28;20215;-81
2021/03/29 07:36:45;;;;;;;4.35;1.90;;;;;;;10.02;55.53;99450.09;4981021;28;20911;-82
2021/03/29 07:39:13;;;;;;;8.00;2.70;;;;;;;10.13;55.54;99450.78;4981155;28;20296;-80
2021/03/29 07:41:40;;;;;;;7.13;2.40;;;;;;;10.22;55.04;99455.84;4977000;28;20213;-80
2021/03/29 07:44:11;;;;;;;4.65;2.40;;;;;;;10.32;55.17;99458.34;4982708;28;20300;-79
2021/03/29 07:46:38;;;;;;;7.22;2.70;;;;;;;10.48;55.21;99459.81;4977633;28;20322;-81
2021/03/29 07:49:05;;;;;;;3.10;2.05;;;;;;;10.66;54.60;99476.00;4982375;28;20753;-81
2021/03/29 07:51:31;;;;;;;8.30;2.10;;;;;;;10.85;54.79;99459.13;4980203;28;20225;-80
2021/03/29 07:54:01;;;;;;;7.53;1.98;;;;;;;10.95;54.32;99463.31;4983126;28;20225;-80
2021/03/29 07:56:41;;;;;;;4.63;1.90;;;;;;;11.09;53.86;99462.16;4983883;28;20246;-81
2021/03/29 07:59:08;;;;;;;4.55;2.13;;;;;;;11.22;52.95;99476.69;4984710;28;20224;-82
2021/03/29 08:02:01;;;;;;;7.47;1.83;;;;;;;11.31;51.43;99471.28;4983709;28;20251;-80
2021/03/29 08:05:02;;;;;;;5.30;2.15;;;;;;;11.46;51.37;99469.25;4983713;28;20351;-80
2021/03/29 08:07:38;;;;;;;6.68;2.22;;;;;;;11.52;50.34;99479.56;4978694;28;20270;-81
2021/03/29 08:10:05;;;;;;;5.80;2.30;;;;;;;11.67;51.20;99476.63;4977580;28;20208;-80
2021/03/29 08:12:32;;;;;;;4.47;2.00;;;;;;;11.85;50.95;99484.94;4988684;28;20220;-82
2021/03/29 08:15:00;;;;;;;5.78;2.00;;;;;;;12.00;50.86;99481.16;4989861;28;20765;-82
2021/03/29 08:17:51;;;;;;;6.05;2.15;;;;;;;12.11;50.46;99474.81;4986327;28;20247;-88
2021/03/29 08:20:43;;;;;;;7.55;2.30;;;;;;;12.30;49.07;99479.59;4985933;28;20444;-83
2021/03/29 08:23:35;;;;;;;8.95;2.30;;;;;;;12.49;48.56;99480.84;4989055;28;20223;-86
2021/03/29 08:26:22;;;;;;;6.95;2.33;;;;;;;12.56;48.46;99478.09;4986372;28;20243;-85
2021/03/29 08:29:29;;;;;;;4.88;2.17;;;;;;;12.59;46.98;99480.59;4985646;28;20661;-81
2021/03/29 08:32:18;;;;;;;4.22;1.35;;;;;;;12.73;48.22;99483.72;4984107;28;20228;-85
2021/03/29 08:34:50;;;;;;;4.80;2.10;;;;;;;12.79;48.85;99483.59;4987358;28;20212;-86
2021/03/29 08:37:17;;;;;;;5.03;2.17;;;;;;;12.84;48.24;99481.69;4992196;28;20224;-87
2021/03/29 08:39:45;;;;;;;5.18;1.80;;;;;;;12.86;47.95;99485.13;4990566;28;20218;-84
2021/03/29 08:42:16;;;;;;;6.97;2.00;;;;;;;12.91;47.87;99485.84;4984128;28;20308;-86
2021/03/29 08:44:44;;;;;;;6.20;1.90;;;;;;;13.02;47.48;99484.72;4985412;28;20326;-87
2021/03/29 08:47:21;;;;;;;5.95;2.08;;;;;;;13.09;47.02;99486.28;4987290;28;20223;-81
2021/03/29 08:50:04;;;;;;;6.25;1.92;;;;;;;13.11;46.92;99492.31;4980702;28;20228;-82
2021/03/29 08:52:40;;;;;;;7.20;2.05;;;;;;;13.19;46.65;99490.34;4983905;28;20227;-81
2021/03/29 08:55:07;;;;;;;5.45;2.00;;;;;;;13.23;46.69;99496.34;4985320;28;20239;-82
2021/03/29 08:57:33;;;;;;;5.50;1.73;;;;;;;13.27;47.07;99497.97;4987232;28;20228;-81
2021/03/29 09:00:02;;;;;;;5.68;2.15;;;;;;;13.38;46.42;99485.50;4986768;28;20269;-81
2021/03/29 09:02:29;;;;;;;6.57;2.03;;;;;;;13.47;46.13;99493.09;4984594;28;20221;-83
2021/03/29 09:04:57;;;;;;;4.32;1.70;;;;;;;13.59;46.18;99497.09;4983895;28;20225;-81
2021/03/29 09:07:35;;;;;;;4.28;1.98;;;;;;;13.73;45.62;99498.44;4992986;28;20809;-82
2021/03/29 09:10:01;;;;;;;6.97;2.10;;;;;;;13.87;46.20;99501.53;4986066;28;20212;-82
2021/03/29 09:12:30;;;;;;;4.03;1.80;;;;;;;13.99;45.58;99489.81;4985219;28;20316;-81
2021/03/29 09:14:57;;;;;;;5.22;2.20;;;;;;;14.05;44.65;99485.22;4980524;28;20328;-87
2021/03/29 09:17:29;;;;;;;7.93;1.90;;;;;;;14.14;44.86;99488.47;4982031;28;20228;-83
2021/03/29 09:19:55;;;;;;;4.35;1.38;;;;;;;14.14;44.32;99489.31;4981184;28;20270;-85
2021/03/29 09:22:31;;;;;;;7.70;2.08;;;;;;;14.18;43.90;99490.94;4986055;28;20745;-82
2021/03/29 09:25:00;;;;;;;4.38;2.00;;;;;;;14.26;43.99;99485.41;4977317;28;20274;-81
2021/03/29 09:27:33;;;;;;;5.50;1.65;;;;;;;14.46;43.22;99485.66;4979562;28;20326;-81
2021/03/29 09:30:00;;;;;;;5.55;1.60;;;;;;;14.72;42.97;99486.56;4978374;28;20207;-81
2021/03/29 09:32:27;;;;;;;2.95;1.60;;;;;;;14.96;42.90;99483.97;4978459;28;20292;-81
2021/03/29 09:35:03;;;;;;;3.50;1.58;;;;;;;15.14;42.07;99480.69;4979034;28;20209;-81
2021/03/29 09:37:30;;;;;;;4.55;1.77;;;;;;;15.45;41.65;99482.22;4979684;28;20982;-82
2021/03/29 09:39:57;;;;;;;3.05;1.40;;;;;;;15.52;41.09;99475.81;4975671;28;20219;-81
2021/03/29 09:42:38;;;;;;;5.75;1.55;;;;;;;15.51;41.06;99489.00;4979706;28;20299;-81
2021/03/29 09:45:06;;;;;;;4.43;1.67;;;;;;;15.60;41.31;99483.41;4980941;28;20240;-83
2021/03/29 09:47:32;;;;;;;3.63;1.50;;;;;;;15.66;40.97;99479.69;4977938;28;20217;-82
2021/03/29 09:49:58;;;;;;;4.00;1.30;;;;;;;15.71;40.97;99480.38;4977947;28;20308;-81
2021/03/29 09:52:35;;;;;;;6.88;1.80;;;;;;;15.86;39.84;99479.81;4984113;28;20234;-81
2021/03/29 09:55:01;;;;;;;2.90;1.30;;;;;;;15.91;39.71;99483.09;4980723;28;20224;-81
2021/03/29 09:57:28;;;;;;;5.47;1.58;;;;;;;15.99;39.72;99483.69;4981810;28;20239;-83
2021/03/29 09:59:55;;;;;;;5.68;1.50;;;;;;;16.10;39.50;99475.38;4981514;28;20255;-81
2021/03/29 10:02:25;;;;;;;2.00;1.02;;;;;;;16.17;39.00;99479.47;4982428;28;20775;-81
2021/03/29 10:05:00;;;;;;;5.03;1.83;;;;;;;16.26;38.13;99472.94;4981539;28;20220;-82
2021/03/29 10:07:26;;;;;;;4.55;1.63;;;;;;;16.32;38.05;99470.09;4984274;28;20215;-82
2021/03/29 10:09:59;;;;;;;5.32;1.60;;;;;;;16.43;38.53;99459.09;4979824;28;20266;-81
2021/03/29 10:12:26;;;;;;;3.50;1.58;;;;;;;16.52;37.88;99466.63;4980327;28;20222;-81
2021/03/29 10:15:04;;;;;;;4.45;1.15;;;;;;;16.60;37.26;99468.06;4976965;28;20211;-81
2021/03/29 10:17:30;;;;;;;4.32;1.40;;;;;;;16.72;37.81;99464.91;4981566;28;20226;-82
2021/03/29 10:20:04;;;;;;;4.35;1.80;;;;;;;16.84;36.54;99466.19;4981868;28;20944;-81
2021/03/29 10:22:30;;;;;;;4.95;1.70;;;;;;;16.86;36.62;99461.72;4979595;28;20221;-82
2021/03/29 10:24:59;;;;;;;4.20;1.50;;;;;;;16.93;36.86;99461.38;4981765;28;20217;-81
2021/03/29 10:27:37;;;;;;;4.55;1.80;;;;;;;16.98;36.53;99461.16;4981628;28;20299;-81
2021/03/29 10:30:04;;;;;;;4.00;1.60;;;;;;;17.13;36.49;99454.38;4979766;28;20269;-82
2021/03/29 10:32:30;;;;;;;3.35;1.48;;;;;;;17.18;36.76;99464.69;4981201;28;20219;-81
2021/03/29 10:34:56;;;;;;;4.18;1.63;;;;;;;17.25;36.58;99456.44;4979295;28;20674;-81
2021/03/29 10:37:24;;;;;;;2.78;1.42;;;;;;;17.23;35.91;99457.44;4978326;28;20232;-81
2021/03/29 10:39:55;;;;;;;4.22;1.60;;;;;;;17.23;35.35;99457.44;4978082;28;20208;-81
2021/03/29 10:42:24;;;;;;;4.18;1.48;;;;;;;17.27;35.81;99454.59;4978755;28;20658;-81
2021/03/29 10:44:51;;;;;;;4.50;1.60;;;;;;;17.41;35.93;99446.06;4985239;28;20224;-82
2021/03/29 10:47:17;;;;;;;4.20;1.45;;;;;;;17.42;35.96;99458.31;4982549;28;20211;-81
2021/03/29 10:49:43;;;;;;;3.38;1.50;;;;;;;17.49;36.20;99449.19;4974411;28;20203;-81
2021/03/29 10:52:10;;;;;;;5.47;1.88;;;;;;;17.54;36.28;99457.75;4973598;28;20223;-84
2021/03/29 10:54:40;;;;;;;5.07;1.50;;;;;;;17.52;36.02;99454.34;4974666;28;20264;-82
2021/03/29 10:57:06;;;;;;;4.78;2.28;;;;;;;17.54;35.63;99451.63;4979412;28;20300;-84
2021/03/29 10:59:33;;;;;;;5.22;1.58;;;;;;;17.62;35.71;99445.97;4977831;28;20751;-82
2021/03/29 11:02:02;;;;;;;5.30;1.70;;;;;;;17.76;36.02;99433.00;4976158;28;20219;-83
2021/03/29 11:04:28;;;;;;;4.18;1.70;;;;;;;17.96;35.18;99436.47;4976536;28;20215;-82
2021/03/29 11:06:55;;;;;;;3.03;1.35;;;;;;;17.99;34.80;99433.69;4976936;28;20324;-82
2021/03/29 11:09:21;;;;;;;4.30;1.55;;;;;;;18.00;34.47;99432.78;4981198;28;20208;-82
2021/03/29 11:11:47;;;;;;;3.70;1.48;;;;;;;18.05;34.62;99442.19;4976847;28;20225;-82
2021/03/29 11:14:16;;;;;;;4.30;1.23;;;;;;;18.22;34.24;99437.88;4980459;28;20249;-82
2021/03/29 11:16:42;;;;;;;5.28;1.60;;;;;;;18.46;34.20;99430.50;4979179;28;20244;-84
2021/03/29 11:19:11;;;;;;;2.65;1.40;;;;;;;18.58;32.45;99429.88;4979609;28;20236;-82
2021/03/29 11:21:37;;;;;;;3.03;1.40;;;;;;;18.72;32.80;99420.38;4975933;28;20238;-83
2021/03/29 11:24:04;;;;;;;4.15;1.30;;;;;;;18.57;32.64;99428.16;4977277;28;20212;-82
2021/03/29 11:26:30;;;;;;;3.20;1.40;;;;;;;18.43;32.81;99430.63;4979669;28;20232;-81
2021/03/29 11:28:56;;;;;;;6.30;1.50;;;;;;;18.53;32.97;99418.69;4974882;28;20276;-82
2021/03/29 11:31:24;;;;;;;3.70;1.40;;;;;;;18.73;32.83;99419.44;4982734;28;20219;-82
2021/03/29 11:33:51;;;;;;;4.88;1.73;;;;;;;18.82;32.54;99409.28;4979993;28;20216;-82
2021/03/29 11:36:18;;;;;;;4.93;1.25;;;;;;;19.03;32.60;99406.44;4981710;28;20273;-82
2021/03/29 11:38:44;;;;;;;4.43;1.60;;;;;;;19.12;32.02;99413.03;4979860;28;20240;-82
2021/03/29 11:41:12;;;;;;;4.43;1.90;;;;;;;19.20;31.88;99409.00;4979930;28;20217;-82
2021/03/29 11:43:38;;;;;;;2.60;1.50;;;;;;;19.32;32.20;99423.38;4974815;28;20213;-82
2021/03/29 11:46:04;;;;;;;4.60;1.38;;;;;;;19.42;31.03;99416.63;4985270;28;20320;-82
2021/03/29 11:48:30;;;;;;;4.15;1.30;;;;;;;19.45;30.71;99416.47;4982950;28;20220;-82